Time;durP1;ratioP1;P1;durP2;ratioP2;P2;SDS_P1;SDS_P2;PMS_P1;PMS_P2;Temp;Humidity;BMP_temperature;BMP_pressure;BME280_temperature;BME280_humidity;BME280_pressure;Samples;Min_cycle;Max_cycle;Signal;HPM_P1;HPM_P2
2021/09/14 00:00:52;;;;;;;8.10;5.30;;;;;;;24.66;43.81;100834.97;110224;1242;73892;-86
2021/09/14 00:03:27;;;;;;;8.40;5.80;;;;;;;24.65;43.68;100830.13;110370;1236;60915;-90
2021/09/14 00:06:49;;;;;;;;;;;;;;;;;;;;;
2021/09/14 00:09:33;;;;;;;9.60;5.80;;;;;;;24.65;43.90;100834.25;110305;1235;73137;-88
2021/09/14 00:12:48;;;;;;;8.60;5.50;;;;;;;24.66;43.93;100834.74;110483;1232;73747;-84
2021/09/14 00:15:46;;;;;;;8.70;5.90;;;;;;;24.65;43.75;100836.05;110526;1235;60171;-89
2021/09/14 00:18:43;;;;;;;;;;;;;;;;;;;;;
2021/09/14 00:21:47;;;;;;;;;;;;;;;;;;;;;
2021/09/14 00:24:54;;;;;;;8.60;5.40;;;;;;;24.65;43.95;100828.16;110955;1228;73582;-84
2021/09/14 00:28:20;;;;;;;9.20;6.00;;;;;;;24.64;43.90;100829.84;111095;1231;60164;-90
2021/09/14 00:31:37;;;;;;;8.80;5.70;;;;;;;24.64;43.96;100830.59;111088;1227;60320;-87
2021/09/14 00:34:35;;;;;;;8.70;5.70;;;;;;;24.64;44.06;100832.38;110681;1230;72451;-85
2021/09/14 00:38:03;;;;;;;7.50;5.10;;;;;;;24.64;43.86;100830.38;110745;1236;74894;-90
2021/09/14 00:40:48;;;;;;;9.20;5.30;;;;;;;24.64;44.05;100833.81;110639;1230;60144;-87
2021/09/14 00:44:14;;;;;;;8.00;5.50;;;;;;;24.64;43.96;100836.33;110597;1230;60293;-88
2021/09/14 00:47:20;;;;;;;8.60;5.60;;;;;;;24.64;43.94;100831.50;110760;1228;72396;-84
2021/09/14 00:50:22;;;;;;;;;;;;;;;;;;;;;
2021/09/14 00:54:01;;;;;;;9.00;5.50;;;;;;;24.65;44.01;100837.36;110537;1233;61242;-90
2021/09/14 00:56:39;;;;;;;;;;;;;;;;;;;;;
2021/09/14 01:00:13;;;;;;;8.00;5.30;;;;;;;24.64;43.98;100846.75;110228;1236;72286;-85
2021/09/14 01:03:21;;;;;;;8.70;5.50;;;;;;;24.64;44.30;100851.11;110189;1238;73454;-84
2021/09/14 01:09:15;;;;;;;;;;;;;;;;;;;;;
2021/09/14 01:12:33;;;;;;;9.40;5.90;;;;;;;24.64;44.26;100853.59;110419;1235;72373;-88
2021/09/14 01:15:49;;;;;;;8.40;5.70;;;;;;;24.63;44.19;100858.16;110577;1232;72550;-87
2021/09/14 01:19:15;;;;;;;9.40;5.90;;;;;;;24.63;44.37;100859.61;110664;1232;60205;-88
2021/09/14 01:22:51;;;;;;;8.00;5.80;;;;;;;24.63;44.30;100857.11;110618;1230;61554;-90
2021/09/14 01:26:01;;;;;;;9.60;5.60;;;;;;;24.64;44.24;100859.95;110497;1233;72577;-88
2021/09/14 01:32:28;;;;;;;8.30;5.40;;;;;;;24.63;44.49;100859.98;109787;1249;60603;-80
2021/09/14 01:35:40;;;;;;;8.80;6.00;;;;;;;24.63;44.35;100860.17;109241;1252;61171;-86
2021/09/14 01:38:51;;;;;;;8.10;5.30;;;;;;;24.63;44.49;100860.53;109516;1250;73464;-87
2021/09/14 01:41:47;;;;;;;8.50;5.40;;;;;;;24.63;44.36;100862.15;109822;1248;74644;-84
2021/09/14 01:44:59;;;;;;;6.70;5.40;;;;;;;24.63;44.44;100861.44;109835;1243;60398;-84
2021/09/14 01:47:46;;;;;;;7.90;5.10;;;;;;;24.63;44.43;100865.20;109553;1250;60225;-82
2021/09/14 01:50:52;;;;;;;8.90;5.50;;;;;;;24.63;44.34;100864.88;109509;1250;71273;-84
2021/09/14 01:53:55;;;;;;;;;;;;;;;;;;;;;
2021/09/14 01:56:52;;;;;;;8.00;5.60;;;;;;;24.63;44.43;100865.22;109879;1246;60491;-82
2021/09/14 02:00:03;;;;;;;9.80;5.20;;;;;;;24.63;44.40;100867.91;109901;1247;60384;-90
2021/09/14 02:03:17;;;;;;;8.10;5.50;;;;;;;24.63;44.49;100867.05;110017;1244;71222;-90
2021/09/14 03:01:22;;;;;;;9.10;5.50;;;;;;;24.59;44.71;100885.64;110566;1238;71171;-86
2021/09/14 03:04:26;;;;;;;8.10;5.50;;;;;;;24.59;44.74;100889.80;110612;1238;74267;-92
2021/09/14 03:07:50;;;;;;;6.90;5.30;;;;;;;24.59;44.81;100891.02;110622;1238;60242;-89
2021/09/14 03:11:04;;;;;;;;;;;;;;;;;;;;;
2021/09/14 03:14:08;;;;;;;8.60;5.00;;;;;;;24.60;44.90;100896.53;110694;1236;72355;-90
2021/09/14 03:17:24;;;;;;;;;;;;;;;;;;;;;
2021/09/14 03:20:33;;;;;;;7.90;5.10;;;;;;;24.60;44.88;100903.71;111542;1228;60816;-87
2021/09/14 03:23:59;;;;;;;7.40;5.50;;;;;;;24.59;44.81;100904.33;111347;1231;60344;-90
2021/09/14 03:26:58;;;;;;;8.00;5.40;;;;;;;24.59;44.77;100907.58;111275;1231;72467;-88
2021/09/14 03:30:06;;;;;;;7.70;5.30;;;;;;;24.61;44.81;100909.65;111291;1231;73711;-86
2021/09/14 03:33:20;;;;;;;8.00;4.90;;;;;;;24.60;44.83;100908.41;111698;1228;60904;-85
2021/09/14 03:36:22;;;;;;;7.50;5.10;;;;;;;24.60;44.86;100912.74;110978;1234;61243;-85
2021/09/14 03:39:22;;;;;;;7.40;5.20;;;;;;;24.60;44.72;100916.33;110480;1238;73484;-81
2021/09/14 03:42:47;;;;;;;7.60;5.10;;;;;;;24.60;44.90;100918.00;110199;1241;72868;-81
2021/09/14 03:45:42;;;;;;;;;;;;;;;;;;;;;
2021/09/14 03:48:55;;;;;;;;;;;;;;;;;;;;;
2021/09/14 03:51:42;;;;;;;7.20;5.60;;;;;;;24.60;45.09;100929.14;109673;1248;73411;-85
2021/09/14 03:54:54;;;;;;;7.40;5.50;;;;;;;24.59;44.82;100933.89;109750;1248;72605;-80
2021/09/14 03:58:00;;;;;;;8.30;5.50;;;;;;;24.58;44.87;100933.61;109462;1250;60250;-90
2021/09/14 04:01:33;;;;;;;8.20;5.80;;;;;;;24.57;44.97;100935.84;109466;1241;60515;-88
2021/09/14 04:11:50;;;;;;;9.60;6.00;;;;;;;24.53;44.90;100939.80;109221;1252;61687;-87
2021/09/14 04:15:07;;;;;;;8.70;6.10;;;;;;;24.52;44.83;100937.02;109504;1249;60247;-91
2021/09/14 04:18:02;;;;;;;;;;;;;;;;;;;;;
2021/09/14 04:21:16;;;;;;;16.80;6.40;;;;;;;24.48;44.63;100936.02;110082;1244;71443;-84
2021/09/14 04:24:13;;;;;;;18.50;7.00;;;;;;;24.48;44.39;100940.26;110370;1240;60305;-82
2021/09/14 04:27:32;;;;;;;44.80;8.70;;;;;;;24.46;44.44;100941.09;110134;1236;60262;-82
2021/09/14 04:30:33;;;;;;;23.40;8.30;;;;;;;24.45;44.13;100943.70;110269;1240;72346;-91
2021/09/14 04:33:21;;;;;;;12.60;6.80;;;;;;;24.42;43.93;100944.10;110325;1240;74684;-79
2021/09/14 04:36:26;;;;;;;;;;;;;;;;;;;;;
2021/09/14 04:39:23;;;;;;;11.20;6.50;;;;;;;24.40;43.85;100948.28;110063;1241;60310;-83
2021/09/14 04:42:17;;;;;;;9.80;6.40;;;;;;;24.38;43.80;100955.40;110415;1234;72356;-86
2021/09/14 04:45:04;;;;;;;;;;;;;;;;;;;;;
2021/09/14 04:47:53;;;;;;;11.10;6.10;;;;;;;24.34;43.60;100958.10;110166;1233;60230;-85
2021/09/14 04:50:26;;;;;;;12.90;5.70;;;;;;;24.34;43.46;100961.55;110365;1231;59349;-80
2021/09/14 04:52:54;;;;;;;16.50;6.90;;;;;;;24.33;43.27;100960.15;110406;1233;73347;-81
2021/09/14 04:55:28;;;;;;;15.00;6.20;;;;;;;24.34;43.20;100962.80;110133;1230;74716;-81
2021/09/14 04:57:54;;;;;;;13.60;6.60;;;;;;;24.34;43.07;100966.77;110284;1235;60349;-80
2021/09/14 05:00:41;;;;;;;15.40;7.20;;;;;;;24.34;43.03;100971.80;110527;1231;60277;-81
2021/09/14 05:03:18;;;;;;;15.10;7.40;;;;;;;24.34;42.88;100973.93;110726;1227;72487;-81
2021/09/14 05:05:57;;;;;;;;;;;;;;;;;;;;;
2021/09/14 05:08:27;;;;;;;18.50;7.30;;;;;;;24.33;42.90;100977.59;111333;1227;61735;-80
2021/09/14 05:11:24;;;;;;;15.70;7.20;;;;;;;24.33;42.94;100976.86;110933;1231;60171;-85
2021/09/14 05:13:52;;;;;;;14.20;7.20;;;;;;;24.33;42.95;100980.46;111325;1224;73444;-81
2021/09/14 05:16:39;;;;;;;16.30;8.00;;;;;;;24.34;42.91;100984.33;111537;1220;74581;-81
2021/09/14 05:19:07;;;;;;;19.30;7.40;;;;;;;24.34;42.87;100986.71;111440;1228;60434;-79
2021/09/14 05:21:44;;;;;;;18.20;8.80;;;;;;;24.33;42.75;100988.36;111457;1219;61124;-79
2021/09/14 05:24:17;;;;;;;17.50;8.10;;;;;;;24.33;42.81;100987.30;111320;1228;71435;-87
2021/09/14 05:27:05;;;;;;;16.60;8.40;;;;;;;24.34;42.85;100989.97;111432;1228;73601;-81
2021/09/14 05:29:59;;;;;;;16.80;8.10;;;;;;;24.33;42.75;100991.46;112115;1217;61074;-86
2021/09/14 05:32:38;;;;;;;21.70;8.10;;;;;;;24.33;42.71;100990.95;111795;1223;60399;-83
2021/09/14 05:35:28;;;;;;;;;;;;;;;;;;;;;
2021/09/14 05:38:05;;;;;;;11.90;7.10;;;;;;;24.33;42.64;100991.46;111539;1221;73620;-83
2021/09/14 05:40:53;;;;;;;17.80;7.50;;;;;;;24.33;42.57;100992.52;111635;1226;60528;-81
2021/09/14 05:43:33;;;;;;;;;;;;;;;;;;;;;
2021/09/14 05:46:20;;;;;;;15.00;7.40;;;;;;;24.29;42.33;100996.83;111915;1220;71177;-80
2021/09/14 05:48:56;;;;;;;17.40;8.50;;;;;;;24.28;42.25;100997.10;111634;1218;73591;-83
2021/09/14 05:51:55;;;;;;;17.60;7.70;;;;;;;24.27;42.23;100999.33;111687;1218;60296;-80
2021/09/14 05:54:20;;;;;;;21.50;7.70;;;;;;;24.26;42.20;100999.23;112626;1218;62206;-79
2021/09/14 05:56:46;;;;;;;16.00;8.00;;;;;;;24.22;42.01;101001.72;112418;1218;58332;-79
2021/09/14 05:59:12;;;;;;;20.20;8.10;;;;;;;24.12;41.90;100999.83;112138;1219;58902;-80
2021/09/14 06:01:37;;;;;;;16.50;7.40;;;;;;;24.09;41.89;100997.17;111670;1221;64025;-80
2021/09/14 06:04:03;;;;;;;19.60;7.50;;;;;;;24.11;42.02;100997.34;111855;1217;60173;-84
2021/09/14 06:06:29;;;;;;;30.20;8.30;;;;;;;24.16;42.04;101000.42;111974;1217;60291;-80
2021/09/14 06:09:04;;;;;;;16.70;7.80;;;;;;;24.21;42.22;101000.04;111631;1216;72315;-80
2021/09/14 06:11:32;;;;;;;19.40;8.90;;;;;;;24.23;42.21;100997.98;111949;1219;60270;-81
2021/09/14 06:14:11;;;;;;;19.90;8.10;;;;;;;24.18;41.98;100998.93;111971;1215;61035;-82
2021/09/14 06:16:46;;;;;;;14.50;7.70;;;;;;;24.17;42.05;101006.02;112176;1215;60316;-83
2021/09/14 06:19:56;;;;;;;17.80;7.30;;;;;;;24.20;42.08;101003.66;112001;1217;72071;-82
2021/09/14 06:22:41;;;;;;;;;;;;;;;;;;;;;
2021/09/14 06:25:20;;;;;;;16.80;8.30;;;;;;;24.25;42.02;101009.55;112111;1219;60134;-80
2021/09/14 06:28:10;;;;;;;15.70;7.80;;;;;;;24.25;41.82;101011.15;111866;1222;60671;-80
2021/09/14 06:30:58;;;;;;;18.40;9.10;;;;;;;24.24;41.75;101014.64;111821;1215;73534;-82
2021/09/14 06:33:35;;;;;;;15.30;8.50;;;;;;;24.22;41.75;101015.02;112407;1214;74470;-80
2021/09/14 06:36:06;;;;;;;13.80;8.50;;;;;;;24.22;41.59;101014.98;111955;1215;60260;-84
2021/09/14 06:38:43;;;;;;;18.20;8.40;;;;;;;24.21;41.57;101020.66;112070;1222;60908;-80
2021/09/14 06:41:21;;;;;;;18.20;8.50;;;;;;;24.18;41.52;101019.11;111856;1222;72948;-83
2021/09/14 06:44:06;;;;;;;;;;;;;;;;;;;;;
2021/09/14 06:47:21;;;;;;;15.40;7.80;;;;;;;24.05;41.50;101024.79;111969;1219;60183;-84
2021/09/14 06:49:47;;;;;;;21.40;7.80;;;;;;;24.06;41.50;101026.19;111736;1214;60213;-80
2021/09/14 06:52:16;;;;;;;20.30;8.10;;;;;;;24.08;41.50;101024.40;112122;1211;60199;-82
2021/09/14 06:54:51;;;;;;;32.50;9.00;;;;;;;24.07;41.59;101028.77;111693;1220;74800;-81
2021/09/14 06:57:25;;;;;;;18.80;7.90;;;;;;;24.02;41.62;101031.70;111583;1214;60004;-80
2021/09/14 07:00:14;;;;;;;24.80;8.50;;;;;;;24.01;41.64;101033.48;111803;1211;60298;-79
2021/09/14 07:02:49;;;;;;;19.50;8.30;;;;;;;24.01;41.80;101032.55;111519;1214;72355;-81
2021/09/14 07:05:25;;;;;;;16.10;8.20;;;;;;;24.04;41.84;101030.30;111525;1215;73554;-80
2021/09/14 07:08:01;;;;;;;15.20;7.40;;;;;;;24.07;41.88;101030.39;111791;1218;60164;-80
2021/09/14 07:10:29;;;;;;;16.30;8.00;;;;;;;24.09;41.94;101029.17;111741;1219;60365;-84
2021/09/14 07:12:56;;;;;;;17.30;7.70;;;;;;;24.09;41.80;101033.29;111555;1217;73537;-80
2021/09/14 07:15:38;;;;;;;;;;;;;;;;;;;;;
2021/09/14 07:18:17;;;;;;;17.30;7.40;;;;;;;24.11;41.94;101033.70;112413;1222;60285;-81
2021/09/14 07:20:55;;;;;;;17.50;8.20;;;;;;;24.11;42.01;101033.16;111954;1214;60265;-82
2021/09/14 07:23:21;;;;;;;17.20;7.90;;;;;;;24.14;42.06;101030.74;111566;1223;72362;-80
2021/09/14 07:26:13;;;;;;;12.60;7.80;;;;;;;24.18;41.97;101031.84;111584;1215;60702;-79
2021/09/14 07:28:38;;;;;;;13.80;8.20;;;;;;;24.20;42.06;101036.39;111130;1224;61942;-80
2021/09/14 07:31:32;;;;;;;15.10;7.70;;;;;;;24.19;41.93;101033.06;111081;1225;60401;-80
2021/09/14 07:34:07;;;;;;;15.10;7.90;;;;;;;24.19;42.02;101036.31;111211;1228;73695;-81
2021/09/14 07:36:56;;;;;;;19.70;8.90;;;;;;;24.21;42.02;101033.92;111015;1221;74427;-82
2021/09/14 07:39:27;;;;;;;13.90;7.80;;;;;;;24.24;42.06;101034.28;111016;1224;60976;-80
2021/09/14 07:41:55;;;;;;;13.30;8.00;;;;;;;24.25;42.06;101036.13;111211;1228;61011;-81
2021/09/14 07:44:33;;;;;;;;;;;;;;;;;;;;;
2021/09/14 07:47:00;;;;;;;17.10;8.20;;;;;;;24.28;41.99;101039.35;111507;1218;74241;-81
2021/09/14 07:50:05;;;;;;;15.10;8.00;;;;;;;24.29;42.07;101043.98;111300;1227;61200;-80
2021/09/14 07:52:45;;;;;;;17.30;8.20;;;;;;;24.33;42.07;101043.27;110769;1222;60984;-82
2021/09/14 07:55:11;;;;;;;23.80;8.90;;;;;;;24.33;42.17;101040.35;112124;1221;72417;-81
2021/09/14 07:57:37;;;;;;;17.10;8.60;;;;;;;24.31;42.14;101041.27;111993;1221;58737;-80
2021/09/14 08:00:04;;;;;;;30.30;9.00;;;;;;;24.31;42.20;101035.18;112117;1221;58553;-80
2021/09/14 08:02:30;;;;;;;15.30;8.30;;;;;;;24.32;42.29;101037.39;112009;1221;58471;-80
2021/09/14 08:04:56;;;;;;;19.60;8.00;;;;;;;24.33;42.32;101038.21;112104;1219;58634;-80
2021/09/14 08:07:22;;;;;;;15.80;8.50;;;;;;;24.33;42.32;101036.77;112302;1221;60310;-83
2021/09/14 08:09:48;;;;;;;15.30;8.30;;;;;;;24.32;42.33;101034.35;111184;1225;60170;-81
2021/09/14 08:12:14;;;;;;;14.20;8.30;;;;;;;24.34;42.35;101031.84;111599;1215;60195;-80
2021/09/14 08:14:40;;;;;;;15.50;8.00;;;;;;;24.37;42.27;101029.05;111856;1214;63627;-80
2021/09/14 08:17:06;;;;;;;13.50;8.00;;;;;;;24.40;42.28;101031.02;111685;1218;60308;-80
2021/09/14 08:19:42;;;;;;;15.40;8.20;;;;;;;24.42;42.14;101026.52;111899;1218;60399;-82
2021/09/14 08:22:11;;;;;;;18.50;8.30;;;;;;;24.43;42.20;101024.05;111677;1215;60295;-80
2021/09/14 08:24:42;;;;;;;12.80;7.90;;;;;;;24.46;42.13;101023.89;111658;1221;72217;-80
2021/09/14 08:27:08;;;;;;;15.80;8.70;;;;;;;24.43;41.99;101021.91;111819;1215;74727;-79
2021/09/14 08:30:00;;;;;;;17.30;8.50;;;;;;;24.40;41.88;101021.26;112056;1217;60213;-80
2021/09/14 08:32:26;;;;;;;15.20;8.60;;;;;;;24.39;41.93;101019.55;112025;1214;61197;-79
2021/09/14 08:35:03;;;;;;;18.60;8.30;;;;;;;24.40;41.93;101019.50;112120;1219;60260;-83
2021/09/14 08:37:32;;;;;;;14.00;8.40;;;;;;;24.41;41.87;101020.47;112080;1216;75474;-83
2021/09/14 08:40:15;;;;;;;13.70;7.90;;;;;;;24.40;41.90;101018.44;112146;1219;60167;-81
2021/09/14 08:43:03;;;;;;;15.30;8.30;;;;;;;24.38;41.81;101015.84;111908;1215;60197;-80
2021/09/14 08:45:29;;;;;;;15.50;7.80;;;;;;;24.38;41.70;101011.77;112949;1214;73462;-80
2021/09/14 08:47:55;;;;;;;14.50;8.30;;;;;;;24.40;41.66;101013.52;111981;1223;60176;-80
2021/09/14 08:50:31;;;;;;;18.00;8.10;;;;;;;24.42;41.63;101015.02;111715;1214;61027;-81
2021/09/14 08:53:16;;;;;;;;;;;;;;;;;;;;;
2021/09/14 08:56:09;;;;;;;16.60;8.20;;;;;;;24.49;41.63;101012.41;111224;1214;73572;-81
2021/09/14 08:58:36;;;;;;;21.90;8.10;;;;;;;24.54;41.68;101010.05;110905;1222;74994;-80
2021/09/14 09:01:11;;;;;;;23.00;8.50;;;;;;;24.58;41.74;101006.30;110842;1218;60879;-80
2021/09/14 09:03:38;;;;;;;18.00;8.50;;;;;;;24.61;41.74;100999.91;111145;1222;61871;-79
2021/09/14 09:06:06;;;;;;;13.70;7.90;;;;;;;24.64;41.75;101000.44;111226;1226;60384;-80
2021/09/14 09:08:32;;;;;;;11.90;8.30;;;;;;;24.66;41.79;100995.45;111307;1218;73419;-79
2021/09/14 09:11:16;;;;;;;19.00;8.40;;;;;;;24.66;41.64;100993.98;111492;1215;60197;-82
2021/09/14 09:13:53;;;;;;;14.70;7.90;;;;;;;24.67;41.63;100992.81;111899;1222;60191;-81
2021/09/14 09:16:27;;;;;;;23.00;8.10;;;;;;;24.67;41.66;100989.40;111607;1215;72413;-80
2021/09/14 09:18:57;;;;;;;24.10;8.70;;;;;;;24.69;41.91;100991.95;111738;1219;73853;-80
2021/09/14 09:21:31;;;;;;;20.30;8.30;;;;;;;24.69;41.97;100990.49;112213;1216;60415;-80
2021/09/14 09:23:58;;;;;;;13.70;9.00;;;;;;;24.70;42.06;100990.42;111829;1219;60272;-81
2021/09/14 09:26:36;;;;;;;20.00;8.40;;;;;;;24.71;41.96;100989.81;111956;1217;72321;-82
2021/09/14 09:29:11;;;;;;;22.40;8.70;;;;;;;24.71;41.81;100991.91;111930;1215;74926;-79
2021/09/14 09:32:03;;;;;;;;;;;;;;;;;;;;;
2021/09/14 09:34:31;;;;;;;20.00;8.40;;;;;;;24.72;41.53;100992.05;111566;1218;60481;-80
2021/09/14 09:37:07;;;;;;;25.30;8.90;;;;;;;24.72;41.27;100990.02;111548;1215;73208;-83
2021/09/14 09:39:45;;;;;;;20.90;8.10;;;;;;;24.73;41.02;100990.16;111600;1224;74556;-80
2021/09/14 09:42:22;;;;;;;22.20;8.50;;;;;;;24.74;40.97;100989.20;111935;1218;61164;-80
2021/09/14 09:44:55;;;;;;;17.80;9.30;;;;;;;24.75;41.14;100985.70;111981;1222;60181;-81
2021/09/14 09:47:24;;;;;;;17.50;8.60;;;;;;;24.76;41.27;100983.38;111920;1214;72699;-79
2021/09/14 09:49:50;;;;;;;20.10;8.10;;;;;;;24.78;41.37;100979.89;111889;1216;73666;-80
2021/09/14 09:52:25;;;;;;;28.70;9.10;;;;;;;24.79;41.39;100977.98;111458;1219;60260;-78
2021/09/14 09:54:50;;;;;;;23.20;8.60;;;;;;;24.81;41.42;100980.31;111606;1215;60290;-81
2021/09/14 09:57:16;;;;;;;21.90;8.80;;;;;;;24.83;41.55;100976.95;111457;1219;60261;-81
2021/09/14 09:59:42;;;;;;;18.00;8.60;;;;;;;24.83;41.26;100975.48;111376;1217;60252;-79
2021/09/14 10:02:16;;;;;;;18.80;8.50;;;;;;;24.83;41.08;100977.42;111684;1216;60385;-80
2021/09/14 10:04:46;;;;;;;16.20;7.90;;;;;;;24.84;40.91;100974.11;112300;1215;60998;-83
2021/09/14 10:07:12;;;;;;;18.70;8.10;;;;;;;24.84;40.97;100973.58;112276;1223;73590;-82
2021/09/14 10:09:48;;;;;;;15.30;7.80;;;;;;;24.85;40.80;100972.36;112337;1222;73406;-81
2021/09/14 10:12:24;;;;;;;14.90;7.70;;;;;;;24.86;40.52;100970.89;112042;1217;60249;-80
2021/09/14 10:15:13;;;;;;;11.50;7.40;;;;;;;24.87;40.34;100967.59;111630;1222;60173;-80
2021/09/14 10:17:47;;;;;;;11.50;7.20;;;;;;;24.87;40.32;100967.23;112157;1218;73462;-80
2021/09/14 10:20:13;;;;;;;13.40;7.10;;;;;;;24.86;39.82;100965.83;112871;1216;73653;-80
2021/09/14 10:22:39;;;;;;;11.90;6.90;;;;;;;24.86;39.55;100967.98;113018;1214;58449;-79
2021/09/14 10:25:06;;;;;;;13.30;7.40;;;;;;;24.87;39.41;100965.04;113003;1217;58982;-79
2021/09/14 10:27:39;;;;;;;15.40;7.00;;;;;;;24.88;39.07;100961.73;113091;1215;58714;-79
2021/09/14 10:30:07;;;;;;;14.70;7.20;;;;;;;24.90;38.71;100961.23;112864;1217;72649;-79
2021/09/14 10:32:43;;;;;;;13.70;7.50;;;;;;;24.90;38.57;100962.79;113020;1217;60007;-79
2021/09/14 10:35:10;;;;;;;13.00;6.80;;;;;;;24.91;38.63;100959.10;112621;1216;60177;-80
2021/09/14 10:37:36;;;;;;;13.80;7.40;;;;;;;24.93;38.78;100958.46;112791;1215;72472;-80
2021/09/14 10:40:15;;;;;;;11.30;6.90;;;;;;;24.94;38.83;100951.81;112575;1222;60193;-81
2021/09/14 10:42:46;;;;;;;20.70;7.30;;;;;;;24.94;38.86;100948.04;112065;1222;61781;-80
2021/09/14 10:45:17;;;;;;;15.00;7.30;;;;;;;24.94;38.84;100949.48;111947;1216;61595;-81
2021/09/14 10:47:53;;;;;;;12.30;7.10;;;;;;;24.94;38.69;100947.15;111396;1215;72370;-79
2021/09/14 10:50:27;;;;;;;17.50;7.60;;;;;;;24.94;38.70;100943.77;111243;1222;74549;-80
2021/09/14 10:53:29;;;;;;;18.10;7.90;;;;;;;24.93;38.83;100946.00;112668;1214;60300;-79
2021/09/14 10:56:13;;;;;;;19.50;7.60;;;;;;;24.93;38.92;100938.95;112970;1223;60428;-79
2021/09/14 10:58:43;;;;;;;14.70;7.60;;;;;;;24.94;38.95;100935.48;112876;1217;57972;-79
2021/09/14 11:01:12;;;;;;;18.50;7.50;;;;;;;24.94;39.14;100931.66;113041;1215;73553;-79
2021/09/14 11:03:38;;;;;;;13.10;7.10;;;;;;;24.95;39.16;100933.92;112849;1215;59844;-80
2021/09/14 11:06:05;;;;;;;14.40;7.50;;;;;;;24.98;39.12;100932.84;113171;1217;58364;-80
2021/09/14 11:08:31;;;;;;;17.20;7.00;;;;;;;24.98;39.06;100930.95;113082;1215;58107;-79
2021/09/14 11:11:00;;;;;;;12.60;7.50;;;;;;;24.99;39.00;100925.84;112343;1215;60228;-83
2021/09/14 11:13:29;;;;;;;12.60;7.10;;;;;;;25.00;38.98;100925.59;111791;1223;60462;-79
2021/09/14 11:16:01;;;;;;;13.00;7.20;;;;;;;25.00;39.00;100924.85;112980;1215;60192;-80
2021/09/14 11:18:27;;;;;;;12.10;6.50;;;;;;;25.01;38.84;100920.51;113117;1215;72242;-79
2021/09/14 11:21:01;;;;;;;11.50;6.60;;;;;;;25.01;38.73;100920.62;112924;1216;73643;-79
2021/09/14 11:23:26;;;;;;;12.20;7.10;;;;;;;25.02;38.77;100915.73;113067;1215;61895;-79
2021/09/14 11:25:53;;;;;;;12.80;7.70;;;;;;;25.02;38.83;100915.11;113193;1215;58458;-79
2021/09/14 11:28:19;;;;;;;11.80;7.30;;;;;;;25.04;38.87;100915.55;113022;1218;58002;-80
2021/09/14 11:31:00;;;;;;;12.30;7.30;;;;;;;25.06;38.67;100917.32;112038;1224;60203;-79
2021/09/14 11:33:52;;;;;;;12.70;6.80;;;;;;;25.07;38.43;100916.88;112086;1223;60304;-82
2021/09/14 11:36:21;;;;;;;12.30;7.10;;;;;;;25.06;38.49;100911.72;111699;1222;60125;-81
2021/09/14 11:39:07;;;;;;;10.60;6.60;;;;;;;25.05;38.41;100916.29;111824;1226;71708;-81
2021/09/14 11:41:57;;;;;;;11.20;6.60;;;;;;;25.03;38.59;100911.48;111793;1226;74517;-82
2021/09/14 11:44:28;;;;;;;16.10;7.10;;;;;;;25.01;38.64;100904.24;111324;1227;60255;-80
2021/09/14 11:46:57;;;;;;;12.80;6.50;;;;;;;25.00;38.75;100908.27;111617;1219;60220;-80
2021/09/14 11:49:59;;;;;;;10.70;6.30;;;;;;;25.00;38.79;100907.42;111544;1227;71200;-80
2021/09/14 11:52:27;;;;;;;13.20;7.20;;;;;;;24.98;38.95;100904.54;111097;1221;73457;-79
2021/09/14 11:54:55;;;;;;;14.80;6.70;;;;;;;24.97;38.94;100903.88;111074;1225;60272;-83
2021/09/14 11:57:42;;;;;;;15.30;7.50;;;;;;;24.97;39.06;100903.56;111335;1222;60181;-82
2021/09/14 12:00:34;;;;;;;14.20;7.30;;;;;;;24.96;39.08;100901.66;111273;1230;73297;-81
2021/09/14 12:03:33;;;;;;;11.00;6.70;;;;;;;24.95;39.10;100902.44;111410;1230;74703;-87
2021/09/14 12:06:36;;;;;;;13.10;6.70;;;;;;;24.94;39.12;100899.45;111219;1232;60220;-82
2021/09/14 12:09:23;;;;;;;13.70;7.00;;;;;;;24.93;39.24;100897.72;111264;1232;60518;-85
2021/09/14 12:12:18;;;;;;;15.10;6.80;;;;;;;24.92;39.23;100897.25;110982;1231;73489;-82
2021/09/14 12:14:54;;;;;;;13.40;6.90;;;;;;;24.91;39.28;100890.48;110871;1226;73665;-80
2021/09/14 12:18:07;;;;;;;10.70;6.90;;;;;;;24.91;39.38;100890.17;110659;1230;60386;-79
2021/09/14 12:20:43;;;;;;;16.30;7.30;;;;;;;24.91;39.43;100889.83;110621;1227;60486;-78
2021/09/14 12:23:16;;;;;;;11.30;6.50;;;;;;;24.90;39.39;100883.58;110656;1234;73457;-79
2021/09/14 12:25:55;;;;;;;12.90;6.50;;;;;;;24.91;39.39;100882.26;110758;1227;60236;-80
2021/09/14 12:28:50;;;;;;;13.50;6.30;;;;;;;24.90;39.44;100879.76;110845;1231;61385;-79
2021/09/14 12:31:27;;;;;;;20.20;7.20;;;;;;;24.90;39.59;100881.41;111537;1221;61634;-80
2021/09/14 12:34:22;;;;;;;18.80;7.00;;;;;;;24.90;39.70;100878.74;111413;1222;71470;-83
2021/09/14 12:37:08;;;;;;;12.00;6.60;;;;;;;24.90;39.74;100875.14;111607;1227;73596;-89
2021/09/14 12:40:17;;;;;;;13.70;6.50;;;;;;;24.89;39.87;100869.79;111568;1222;60183;-85
2021/09/14 12:43:27;;;;;;;10.90;6.40;;;;;;;24.90;39.87;100870.84;111737;1221;61111;-82
2021/09/14 12:45:58;;;;;;;12.10;7.20;;;;;;;24.89;39.86;100869.47;111313;1221;74399;-81
2021/09/14 12:49:08;;;;;;;10.50;6.60;;;;;;;24.89;39.98;100866.20;111425;1222;75046;-80
2021/09/14 12:52:07;;;;;;;13.50;6.60;;;;;;;24.90;39.94;100866.88;111552;1228;61024;-83
2021/09/14 12:54:47;;;;;;;10.70;6.30;;;;;;;24.89;40.01;100861.52;111420;1226;61128;-80
2021/09/14 12:57:43;;;;;;;;;;;;;;;;;;;;;
2021/09/14 13:00:43;;;;;;;;;;;;;;;;;;;;;
2021/09/14 13:03:45;;;;;;;14.10;6.90;;;;;;;24.90;39.95;100851.02;111429;1221;62330;-81
2021/09/14 13:06:42;;;;;;;11.60;6.70;;;;;;;24.90;39.99;100850.45;111656;1222;60501;-80
2021/09/14 13:09:31;;;;;;;12.50;6.30;;;;;;;24.90;40.02;100854.38;111320;1222;73971;-81
2021/09/14 13:12:32;;;;;;;14.80;6.20;;;;;;;24.90;39.98;100850.09;111550;1228;73504;-80
2021/09/14 13:18:15;;;;;;;15.10;7.20;;;;;;;24.90;40.18;100851.32;111414;1228;61194;-80
2021/09/14 13:21:01;;;;;;;15.50;6.80;;;;;;;24.92;40.27;100846.01;111064;1223;71591;-82
2021/09/14 13:23:42;;;;;;;;;;;;;;;;;;;;;
2021/09/14 13:26:11;;;;;;;15.90;7.10;;;;;;;24.92;40.46;100842.70;111367;1221;60405;-82
2021/09/14 13:29:17;;;;;;;15.20;6.60;;;;;;;24.92;40.53;100843.59;111510;1220;60897;-81
2021/09/14 13:32:03;;;;;;;12.30;6.80;;;;;;;24.92;40.52;100842.88;111252;1220;73284;-87
2021/09/14 13:35:02;;;;;;;16.30;7.30;;;;;;;24.92;40.60;100842.52;111652;1220;74072;-82
2021/09/14 13:38:11;;;;;;;;;;;;;;;24.92;40.62;100842.91;111632;1221;60174;-84
2021/09/14 13:41:05;;;;;;;14.10;6.20;;;;;;;24.90;40.75;100841.67;111810;1227;61229;-86
2021/09/14 13:47:45;;;;;;;13.30;6.70;;;;;;;24.89;40.54;100846.36;111363;1230;72451;-83
2021/09/14 13:50:59;;;;;;;9.90;5.90;;;;;;;24.89;40.57;100844.08;110953;1234;61119;-81
2021/09/14 13:53:47;;;;;;;10.30;6.00;;;;;;;24.89;40.53;100844.63;110645;1234;61474;-83
2021/09/14 13:56:56;;;;;;;11.10;6.00;;;;;;;24.89;40.53;100844.09;110997;1233;73450;-87
2021/09/14 14:00:18;;;;;;;11.20;6.60;;;;;;;24.89;40.57;100844.32;110901;1234;72440;-83
2021/09/14 14:03:09;;;;;;;;;;;;;;;24.88;40.63;100843.27;110871;1235;60962;-88
2021/09/14 14:07:03;;;;;;;9.00;5.80;;;;;;;24.86;40.65;100842.89;110970;1234;60246;-83
2021/09/14 14:09:48;;;;;;;11.10;6.40;;;;;;;24.87;40.63;100840.52;110468;1233;71335;-85
2021/09/14 14:12:38;;;;;;;8.60;5.90;;;;;;;24.87;40.68;100841.58;110357;1240;72703;-88
2021/09/14 14:15:53;;;;;;;9.90;5.50;;;;;;;24.87;40.57;100839.61;110300;1242;60752;-85
2021/09/14 14:18:47;;;;;;;12.10;6.00;;;;;;;24.87;40.72;100841.23;110294;1242;61192;-88
2021/09/14 14:22:34;;;;;;;12.30;6.10;;;;;;;24.85;40.68;100838.66;110045;1245;71313;-86
2021/09/14 14:25:40;;;;;;;11.50;6.10;;;;;;;24.85;40.77;100840.27;109878;1239;73850;-83
2021/09/14 14:28:49;;;;;;;10.90;6.00;;;;;;;24.85;40.83;100838.83;110217;1242;60298;-87
2021/09/14 14:31:47;;;;;;;;;;;;;;;;;;;;;
2021/09/14 14:34:44;;;;;;;10.60;6.20;;;;;;;24.86;40.68;100840.77;110255;1236;73558;-89